Time;durP1;ratioP1;P1;durP2;ratioP2;P2;SDS_P1;SDS_P2;PMS_P1;PMS_P2;Temp;Humidity;BMP_temperature;BMP_pressure;BME280_temperature;BME280_humidity;BME280_pressure;Samples;Min_cycle;Max_cycle;Signal;HPM_P1;HPM_P2
2022/07/13 00:02:15;;;;;;;3.33;2.70;;;21.30;76.40;;;;;;10448381;28;20212;-69
2022/07/13 00:07:16;;;;;;;3.77;2.60;;;21.40;76.40;;;;;;10437745;28;20616;-69
2022/07/13 00:12:16;;;;;;;3.50;2.60;;;21.40;76.40;;;;;;10437529;28;20227;-69
2022/07/13 00:17:20;;;;;;;3.40;2.50;;;21.30;76.50;;;;;;10442322;28;20212;-68
2022/07/13 00:22:20;;;;;;;4.00;2.20;;;21.20;75.90;;;;;;10450281;28;20266;-68
2022/07/13 00:27:21;;;;;;;5.17;2.17;;;21.20;75.90;;;;;;10449761;28;20281;-68
2022/07/13 00:32:23;;;;;;;2.20;2.00;;;21.00;76.60;;;;;;10448708;28;20223;-68
2022/07/13 00:37:23;;;;;;;2.93;1.93;;;20.90;76.40;;;;;;10447453;28;20343;-68
2022/07/13 00:42:24;;;;;;;2.30;2.10;;;20.90;76.70;;;;;;10441772;28;20421;-69
2022/07/13 00:47:32;;;;;;;2.07;1.60;;;20.90;77.00;;;;;;10446085;28;20224;-68
2022/07/13 00:52:34;;;;;;;1.97;1.77;;;20.90;76.90;;;;;;10435984;28;20224;-70
2022/07/13 00:57:37;;;;;;;2.87;1.90;;;21.00;77.30;;;;;;10441514;28;20218;-68
2022/07/13 01:02:44;;;;;;;2.40;2.00;;;21.00;77.70;;;;;;10432841;28;20718;-69
2022/07/13 01:07:45;;;;;;;2.33;1.93;;;21.10;78.10;;;;;;10436818;28;20228;-69
2022/07/13 01:12:46;;;;;;;2.43;1.93;;;21.10;78.40;;;;;;10447461;28;20615;-69
2022/07/13 01:17:47;;;;;;;1.97;1.80;;;21.10;78.10;;;;;;10433180;28;20220;-68
2022/07/13 01:22:52;;;;;;;1.80;1.70;;;21.00;77.90;;;;;;10446934;28;20307;-67
2022/07/13 01:27:53;;;;;;;1.60;1.50;;;21.00;78.30;;;;;;10437376;28;20242;-67
2022/07/13 01:32:54;;;;;;;2.00;1.80;;;21.00;77.40;;;;;;10445216;28;20603;-68
2022/07/13 01:37:55;;;;;;;5.83;1.70;;;20.90;77.90;;;;;;10432874;28;20224;-68
2022/07/13 01:42:56;;;;;;;4.50;1.40;;;20.90;77.60;;;;;;10442279;28;20207;-68
2022/07/13 01:47:57;;;;;;;1.93;1.10;;;20.90;76.70;;;;;;10440086;28;20738;-68
2022/07/13 01:53:00;;;;;;;5.33;1.50;;;20.80;77.20;;;;;;10440032;28;20227;-69
2022/07/13 01:58:01;;;;;;;1.63;1.20;;;20.80;76.90;;;;;;10435911;28;20784;-69
2022/07/13 02:03:03;;;;;;;1.50;1.20;;;20.80;76.90;;;;;;10431044;28;20311;-70
2022/07/13 02:08:10;;;;;;;1.57;1.33;;;20.70;77.50;;;;;;10440064;28;20223;-68
2022/07/13 02:13:14;;;;;;;2.67;1.50;;;20.60;78.00;;;;;;10440859;28;20802;-68
2022/07/13 02:18:17;;;;;;;4.40;1.23;;;20.50;79.20;;;;;;10440641;28;20294;-69
2022/07/13 02:23:18;;;;;;;2.27;1.70;;;20.30;79.50;;;;;;10447413;28;20246;-69
2022/07/13 02:28:19;;;;;;;2.60;1.60;;;20.20;80.70;;;;;;10444611;28;20246;-70
2022/07/13 02:33:19;;;;;;;1.90;1.30;;;20.10;81.30;;;;;;10432751;28;20228;-69
2022/07/13 02:38:20;;;;;;;4.07;1.67;;;20.00;82.30;;;;;;10441508;28;20788;-69
2022/07/13 02:43:20;;;;;;;1.97;1.57;;;19.80;83.10;;;;;;10441079;28;20220;-69
2022/07/13 02:48:21;;;;;;;2.60;1.53;;;19.80;84.40;;;;;;10423248;28;20230;-68
2022/07/13 02:53:22;;;;;;;1.77;1.60;;;19.70;84.80;;;;;;10437154;28;20369;-69
2022/07/13 02:58:23;;;;;;;1.80;1.70;;;19.70;85.20;;;;;;10430622;28;20215;-68
2022/07/13 03:03:24;;;;;;;2.47;1.60;;;19.60;84.90;;;;;;10434054;28;20255;-68
2022/07/13 03:08:24;;;;;;;4.03;1.70;;;19.60;85.00;;;;;;10437655;28;20255;-69
2022/07/13 03:13:25;;;;;;;2.23;1.40;;;19.40;85.60;;;;;;10445477;28;20228;-68
2022/07/13 03:18:26;;;;;;;2.10;1.67;;;19.20;86.60;;;;;;10445145;28;20308;-68
2022/07/13 03:23:26;;;;;;;1.30;1.20;;;19.10;86.80;;;;;;10445497;28;20227;-68
2022/07/13 03:28:27;;;;;;;1.83;1.47;;;19.10;87.80;;;;;;10439908;28;20246;-68
2022/07/13 03:33:36;;;;;;;2.83;1.60;;;19.00;89.10;;;;;;10444361;28;20220;-68
2022/07/13 03:38:37;;;;;;;3.40;1.60;;;19.00;89.90;;;;;;10443194;28;20212;-69
2022/07/13 03:43:37;;;;;;;3.03;2.10;;;19.00;90.10;;;;;;10443468;28;20216;-68
2022/07/13 03:48:38;;;;;;;4.27;2.10;;;19.10;90.20;;;;;;10443311;28;20769;-68
2022/07/13 03:53:39;;;;;;;1.57;1.47;;;19.20;89.60;;;;;;10447689;28;20230;-68
2022/07/13 03:58:39;;;;;;;2.33;1.63;;;19.40;89.40;;;;;;10452908;28;20211;-68
2022/07/13 04:03:40;;;;;;;2.70;1.43;;;19.60;89.00;;;;;;10441064;28;20675;-69
2022/07/13 04:08:41;;;;;;;1.93;1.30;;;19.70;88.40;;;;;;10437266;28;20629;-69
2022/07/13 04:13:42;;;;;;;3.60;1.57;;;19.80;88.20;;;;;;10441459;28;20215;-69
2022/07/13 04:18:42;;;;;;;2.60;1.23;;;19.90;87.70;;;;;;10435363;28;20224;-69
2022/07/13 04:23:43;;;;;;;2.87;1.33;;;20.00;86.60;;;;;;10451230;28;20694;-69
2022/07/13 04:28:43;;;;;;;2.90;1.20;;;20.10;86.10;;;;;;10442175;28;20307;-68
2022/07/13 04:33:44;;;;;;;3.73;1.50;;;20.20;85.50;;;;;;10436368;28;20231;-67
2022/07/13 04:38:45;;;;;;;2.43;1.30;;;20.30;85.60;;;;;;10436650;28;20246;-69
2022/07/13 04:43:45;;;;;;;2.87;1.30;;;20.40;85.70;;;;;;10436328;28;20732;-69
2022/07/13 04:48:46;;;;;;;1.87;1.13;;;20.50;85.70;;;;;;10445399;28;20212;-68
2022/07/13 04:53:46;;;;;;;1.73;1.20;;;20.60;85.70;;;;;;10450989;28;20259;-68
2022/07/13 04:58:47;;;;;;;3.23;1.73;;;20.70;84.90;;;;;;10427489;28;20215;-70
2022/07/13 05:03:48;;;;;;;4.10;1.40;;;20.70;84.20;;;;;;10438293;28;20224;-69
2022/07/13 05:08:49;;;;;;;5.07;1.60;;;20.80;84.00;;;;;;10442107;28;20692;-68
2022/07/13 05:13:51;;;;;;;2.93;1.77;;;21.00;83.60;;;;;;10440346;28;20235;-69
2022/07/13 05:18:51;;;;;;;2.73;1.67;;;21.30;83.20;;;;;;10442133;28;20212;-70
2022/07/13 05:23:52;;;;;;;5.60;1.83;;;21.50;82.90;;;;;;10432014;28;20311;-70
2022/07/13 05:28:52;;;;;;;4.63;2.43;;;21.60;82.60;;;;;;10433418;28;20298;-69
2022/07/13 05:33:53;;;;;;;5.77;1.70;;;21.60;82.90;;;;;;10449033;28;20230;-69
2022/07/13 05:38:53;;;;;;;1.77;1.50;;;21.60;83.10;;;;;;10433438;28;20223;-69
2022/07/13 05:43:54;;;;;;;3.03;1.60;;;21.60;83.60;;;;;;10434190;28;20303;-69
2022/07/13 05:48:55;;;;;;;5.80;2.10;;;21.60;83.60;;;;;;10446490;28;20219;-69
2022/07/13 05:53:55;;;;;;;3.80;1.73;;;21.80;83.20;;;;;;10428771;28;20606;-70
2022/07/13 05:58:56;;;;;;;4.77;1.80;;;21.90;82.10;;;;;;10440671;28;20747;-70
2022/07/13 06:03:56;;;;;;;2.13;1.50;;;22.00;81.60;;;;;;10428917;28;20599;-70
2022/07/13 06:08:57;;;;;;;10.77;2.67;;;22.30;80.60;;;;;;10431450;28;20684;-69
2022/07/13 06:13:57;;;;;;;4.17;1.80;;;22.60;79.60;;;;;;10443852;28;20215;-69
2022/07/13 06:18:58;;;;;;;4.53;1.53;;;22.90;78.00;;;;;;10430823;28;20228;-69
2022/07/13 06:24:02;;;;;;;4.13;1.33;;;23.20;77.70;;;;;;10430896;28;20252;-70
2022/07/13 06:29:02;;;;;;;7.73;1.50;;;23.50;76.30;;;;;;10441941;28;20231;-69
2022/07/13 06:34:03;;;;;;;5.77;2.23;;;23.90;74.30;;;;;;10426307;28;20227;-69
2022/07/13 06:39:03;;;;;;;5.77;1.80;;;24.30;73.10;;;;;;10430797;28;20227;-69
2022/07/13 06:44:05;;;;;;;5.53;1.40;;;24.50;71.30;;;;;;10435972;28;20226;-69
2022/07/13 06:49:05;;;;;;;3.57;1.57;;;24.70;70.20;;;;;;10437956;28;20255;-69
2022/07/13 06:54:06;;;;;;;3.03;1.23;;;24.90;69.40;;;;;;10436088;28;20282;-70
2022/07/13 06:59:06;;;;;;;1.53;1.20;;;24.90;68.40;;;;;;10434936;28;20306;-70
2022/07/13 07:04:07;;;;;;;5.23;2.70;;;25.10;68.20;;;;;;10435234;28;20230;-70
2022/07/13 07:09:08;;;;;;;3.00;1.43;;;25.50;66.60;;;;;;10434954;28;20292;-70
2022/07/13 07:14:08;;;;;;;6.63;1.50;;;26.00;65.60;;;;;;10434387;28;20243;-70
2022/07/13 07:19:10;;;;;;;2.63;1.27;;;26.60;63.00;;;;;;10438019;28;20235;-70
2022/07/13 07:24:10;;;;;;;3.60;1.20;;;27.30;60.30;;;;;;10437072;28;20695;-70
2022/07/13 07:29:11;;;;;;;2.40;1.40;;;28.30;58.50;;;;;;10432208;28;20224;-70
2022/07/13 07:34:11;;;;;;;4.50;1.40;;;31.60;52.70;;;;;;10436860;28;20224;-70
2022/07/13 07:39:13;;;;;;;7.93;2.60;;;33.40;48.00;;;;;;10439058;28;20302;-69
2022/07/13 07:44:13;;;;;;;22.10;5.43;;;35.50;44.30;;;;;;10431153;28;20327;-72
2022/07/13 07:49:14;;;;;;;13.57;4.00;;;38.90;38.50;;;;;;10432201;28;20311;-69
2022/07/13 07:54:15;;;;;;;7.03;2.47;;;40.10;34.60;;;;;;10441890;28;20215;-69
2022/07/13 07:59:16;;;;;;;11.93;2.60;;;41.00;33.60;;;;;;10434983;28;20310;-70
2022/07/13 08:04:17;;;;;;;3.23;1.40;;;41.30;32.20;;;;;;10434258;28;20220;-69
2022/07/13 08:09:17;;;;;;;2.77;1.60;;;40.50;33.00;;;;;;10434755;28;20219;-70
2022/07/13 08:14:19;;;;;;;4.17;1.47;;;41.30;31.50;;;;;;10428915;28;20735;-70
2022/07/13 08:19:19;;;;;;;4.87;1.63;;;42.30;30.30;;;;;;10431390;28;20222;-71
2022/07/13 08:24:20;;;;;;;5.70;1.43;;;42.30;29.90;;;;;;10434896;28;20223;-70
2022/07/13 08:29:20;;;;;;;4.90;1.70;;;42.20;29.80;;;;;;10433850;28;20227;-70
2022/07/13 08:39:40;;;;;;;4.43;1.37;;;40.00;30.70;;;;;;10426238;28;20216;-70
2022/07/13 08:44:45;;;;;;;30.53;2.73;;;38.60;33.40;;;;;;10434111;28;20311;-70
2022/07/13 08:49:47;;;;;;;3.67;1.00;;;37.20;34.30;;;;;;10441155;28;20224;-70
2022/07/13 08:54:48;;;;;;;3.47;1.30;;;35.50;36.80;;;;;;10426712;28;20232;-71
2022/07/13 08:59:48;;;;;;;2.50;1.57;;;34.50;38.60;;;;;;10432289;28;20225;-70
2022/07/13 09:04:50;;;;;;;1.00;0.83;;;34.00;39.20;;;;;;10426312;28;20303;-70
2022/07/13 09:09:56;;;;;;;4.10;1.20;;;33.70;39.60;;;;;;10432289;28;20220;-71
2022/07/13 09:14:59;;;;;;;9.20;1.30;;;34.00;39.90;;;;;;10433935;28;20308;-70
2022/07/13 09:20:12;;;;;;;5.83;1.20;;;33.70;39.80;;;;;;10430107;28;20231;-71
2022/07/13 09:25:25;;;;;;;1.30;1.20;;;33.20;40.30;;;;;;10428398;28;20581;-70
2022/07/13 09:30:26;;;;;;;1.73;1.20;;;33.50;40.80;;;;;;10423492;28;20223;-70
2022/07/13 09:35:49;;;;;;;2.30;1.37;;;35.80;38.90;;;;;;10432068;28;20231;-70
2022/07/13 09:40:50;;;;;;;6.37;2.40;;;36.40;36.30;;;;;;10424796;28;20236;-69
2022/07/13 09:46:10;;;;;;;3.43;1.43;;;36.00;35.90;;;;;;10429530;28;20231;-68
2022/07/13 09:51:11;;;;;;;6.33;1.60;;;35.70;36.60;;;;;;10426988;28;20243;-71
2022/07/13 09:56:14;;;;;;;2.43;1.00;;;35.80;37.70;;;;;;10430860;28;20666;-69
2022/07/13 10:01:15;;;;;;;3.67;1.20;;;36.30;36.40;;;;;;10434040;28;20228;-69
2022/07/13 10:06:20;;;;;;;1.40;1.00;;;36.10;35.60;;;;;;10422820;28;20842;-68
2022/07/13 10:11:20;;;;;;;3.37;1.20;;;35.70;36.30;;;;;;10436047;28;20271;-69
2022/07/13 10:16:28;;;;;;;1.93;1.23;;;35.20;37.60;;;;;;10427769;28;20409;-69
2022/07/13 10:22:03;;;;;;;6.37;1.20;;;34.90;36.80;;;;;;10429691;28;20946;-69
2022/07/13 10:27:26;;;;;;;7.07;1.50;;;34.90;37.00;;;;;;10425932;28;20635;-70
2022/07/13 10:32:31;;;;;;;5.60;1.10;;;35.40;35.80;;;;;;10424061;28;20257;-69
2022/07/13 10:38:03;;;;;;;2.40;1.30;;;35.50;35.10;;;;;;10444674;28;20227;-69
2022/07/13 10:43:04;;;;;;;1.40;1.30;;;35.00;34.90;;;;;;10440574;28;20727;-70
2022/07/13 10:48:06;;;;;;;2.10;1.43;;;34.50;36.50;;;;;;10429609;28;20280;-70
2022/07/13 10:53:07;;;;;;;2.90;1.27;;;34.00;38.30;;;;;;10433202;28;20235;-71
2022/07/13 10:58:29;;;;;;;4.27;1.37;;;33.60;39.10;;;;;;10425651;28;20298;-70
2022/07/13 11:03:43;;;;;;;4.63;1.70;;;33.40;38.40;;;;;;10436213;28;20228;-70
2022/07/13 11:08:44;;;;;;;5.50;1.30;;;33.50;37.50;;;;;;10436581;28;20228;-70
2022/07/13 11:13:46;;;;;;;2.93;1.03;;;33.50;37.60;;;;;;10428920;28;20230;-69
2022/07/13 11:18:54;;;;;;;2.73;1.20;;;33.80;36.70;;;;;;10422703;28;20221;-70
2022/07/13 11:29:57;;;;;;;3.47;0.97;;;40.20;29.30;;;;;;10429416;28;20322;-69
2022/07/13 11:34:59;;;;;;;3.13;0.97;;;40.90;28.40;;;;;;10435755;28;20258;-70
2022/07/13 11:40:00;;;;;;;4.30;0.90;;;40.90;27.90;;;;;;10433628;28;20300;-70
2022/07/13 11:45:00;;;;;;;0.80;0.67;;;41.10;27.20;;;;;;10429586;28;20708;-69
2022/07/13 11:50:01;;;;;;;5.00;1.07;;;39.80;27.70;;;;;;10431550;28;20597;-70
2022/07/13 11:55:04;;;;;;;1.03;0.60;;;38.10;28.10;;;;;;10438358;28;20223;-69
2022/07/13 12:00:08;;;;;;;4.90;1.20;;;37.50;29.60;;;;;;10445998;28;20217;-69
2022/07/13 12:05:09;;;;;;;8.40;1.97;;;36.70;30.00;;;;;;10443271;28;20195;-70
2022/07/13 12:10:10;;;;;;;3.60;0.80;;;36.20;30.50;;;;;;10441854;28;20176;-71
2022/07/13 12:15:12;;;;;;;4.17;1.17;;;36.00;31.10;;;;;;10446152;28;20214;-71
2022/07/13 12:20:14;;;;;;;5.07;1.03;;;35.10;31.90;;;;;;10447345;28;20173;-70
2022/07/13 12:25:34;;;;;;;1.87;1.07;;;34.40;31.90;;;;;;10442427;28;20273;-69
2022/07/13 12:30:37;;;;;;;5.63;1.37;;;33.80;32.70;;;;;;10435761;28;20220;-70
2022/07/13 12:35:40;;;;;;;0.60;0.60;;;33.50;32.90;;;;;;10444060;28;20235;-70
2022/07/13 12:40:55;;;;;;;5.23;0.93;;;33.20;30.90;;;;;;10437224;28;20297;-70
2022/07/13 12:45:57;;;;;;;1.20;0.70;;;32.90;31.60;;;;;;10445686;28;20653;-70
2022/07/13 12:51:13;;;;;;;206.90;13.73;;;32.80;31.40;;;;;;10438891;28;20790;-71
2022/07/13 12:56:15;;;;;;;1.47;0.70;;;32.80;31.80;;;;;;10437864;28;20258;-71
2022/07/13 13:01:35;;;;;;;4.17;1.10;;;32.80;31.60;;;;;;10446007;28;20224;-71
2022/07/13 13:06:37;;;;;;;1.63;0.87;;;32.90;33.50;;;;;;10439224;28;20222;-70
2022/07/13 13:11:39;;;;;;;4.80;0.80;;;32.90;34.30;;;;;;10444582;28;20227;-71
2022/07/13 13:16:40;;;;;;;1.60;0.80;;;32.80;33.00;;;;;;10445601;28;20232;-70
2022/07/13 13:21:41;;;;;;;2.13;1.00;;;32.60;34.00;;;;;;10444706;28;20299;-70
2022/07/13 13:26:45;;;;;;;2.97;0.90;;;32.60;34.40;;;;;;10437538;28;20299;-71
2022/07/13 13:31:45;;;;;;;4.43;0.97;;;32.60;34.10;;;;;;10440964;28;20227;-70
2022/07/13 13:36:46;;;;;;;2.80;0.80;;;32.70;34.40;;;;;;10444557;28;20869;-71
2022/07/13 13:41:47;;;;;;;1.37;0.80;;;33.00;33.10;;;;;;10444585;28;20228;-70
2022/07/13 13:46:48;;;;;;;1.17;0.83;;;33.30;32.40;;;;;;10436334;28;20216;-71
2022/07/13 13:51:48;;;;;;;3.07;0.80;;;33.40;32.20;;;;;;10442379;28;20300;-69
2022/07/13 13:56:49;;;;;;;1.73;1.00;;;33.30;32.40;;;;;;10440668;28;20224;-70
2022/07/13 14:01:52;;;;;;;4.67;1.00;;;33.30;32.50;;;;;;10440611;28;20226;-69
2022/07/13 14:06:52;;;;;;;6.27;2.30;;;33.50;32.50;;;;;;10440180;28;20249;-71
2022/07/13 14:11:53;;;;;;;3.43;0.80;;;33.60;32.30;;;;;;10436945;28;20318;-70
2022/07/13 14:16:53;;;;;;;4.13;1.00;;;33.60;32.20;;;;;;10439698;28;20262;-69
2022/07/13 14:21:54;;;;;;;5.10;1.07;;;33.60;34.50;;;;;;10436403;28;20263;-70
2022/07/13 14:26:55;;;;;;;5.73;1.17;;;33.50;35.60;;;;;;10439910;28;20211;-71
2022/07/13 14:31:57;;;;;;;2.37;1.00;;;33.40;36.50;;;;;;10436004;28;20236;-70
2022/07/13 14:36:59;;;;;;;5.50;1.17;;;33.20;37.00;;;;;;10438803;28;20223;-69
2022/07/13 14:42:00;;;;;;;1.93;0.90;;;33.20;34.60;;;;;;10436979;28;20269;-71
2022/07/13 14:47:01;;;;;;;1.90;0.90;;;33.10;34.10;;;;;;10433054;28;20758;-70
2022/07/13 14:52:02;;;;;;;1.33;0.70;;;33.00;33.50;;;;;;10433353;28;20307;-70
2022/07/13 14:57:03;;;;;;;1.90;0.83;;;32.80;34.60;;;;;;10439337;28;20249;-70
2022/07/13 15:02:04;;;;;;;0.93;0.50;;;32.80;33.90;;;;;;10443573;28;20358;-70
2022/07/13 15:07:06;;;;;;;2.03;0.50;;;32.70;34.20;;;;;;10443383;28;20232;-70
2022/07/13 15:12:06;;;;;;;1.67;0.90;;;32.70;32.60;;;;;;10440361;28;20216;-69
2022/07/13 15:17:07;;;;;;;2.40;0.63;;;32.70;32.10;;;;;;10450902;28;20212;-71
2022/07/13 15:22:07;;;;;;;3.90;1.20;;;32.60;31.70;;;;;;10445660;28;20890;-71
2022/07/13 15:27:08;;;;;;;1.90;0.70;;;32.50;33.20;;;;;;10452128;28;20212;-71
2022/07/13 15:32:10;;;;;;;3.47;1.07;;;32.30;33.90;;;;;;10443495;28;20231;-69
2022/07/13 15:37:10;;;;;;;4.37;0.90;;;32.40;34.50;;;;;;10446841;28;20760;-71
2022/07/13 15:42:11;;;;;;;0.87;0.77;;;32.20;34.80;;;;;;10446139;28;20220;-69
2022/07/13 15:47:11;;;;;;;5.43;1.07;;;32.20;34.80;;;;;;10435022;28;20690;-70
2022/07/13 15:52:12;;;;;;;5.80;0.90;;;32.30;35.30;;;;;;10458868;28;20754;-70
2022/07/13 15:57:13;;;;;;;1.27;0.60;;;32.50;34.90;;;;;;10443277;28;20217;-70
2022/07/13 16:02:14;;;;;;;1.97;0.70;;;32.50;35.30;;;;;;10445934;28;20246;-69
2022/07/13 16:07:14;;;;;;;1.33;0.70;;;32.30;35.70;;;;;;10449130;28;20260;-70
2022/07/13 16:12:16;;;;;;;2.10;1.07;;;32.00;35.90;;;;;;10440062;28;20232;-71
2022/07/13 16:17:17;;;;;;;4.50;1.37;;;31.80;35.90;;;;;;10441088;28;20303;-69
2022/07/13 16:22:17;;;;;;;12.07;1.37;;;31.50;37.60;;;;;;10442935;28;20298;-70
2022/07/13 16:27:18;;;;;;;2.77;1.23;;;31.10;39.50;;;;;;10443965;28;20484;-70
2022/07/13 16:32:18;;;;;;;2.83;1.27;;;31.00;37.00;;;;;;10445141;28;20216;-70
2022/07/13 16:37:19;;;;;;;5.27;1.90;;;30.90;36.40;;;;;;10434166;28;20217;-69
2022/07/13 16:42:20;;;;;;;12.43;1.63;;;31.00;37.20;;;;;;10445555;28;20258;-69
2022/07/13 16:47:23;;;;;;;4.00;1.40;;;31.20;37.30;;;;;;10436004;28;20627;-67
2022/07/13 16:52:26;;;;;;;4.30;0.93;;;30.90;38.40;;;;;;10440500;28;20216;-69
2022/07/13 16:57:27;;;;;;;2.83;1.50;;;30.80;37.90;;;;;;10437245;28;20295;-68
2022/07/13 17:02:27;;;;;;;2.30;0.80;;;31.00;37.70;;;;;;10441166;28;20216;-69
2022/07/13 17:07:28;;;;;;;3.07;1.30;;;31.10;36.90;;;;;;10441709;28;20347;-69
2022/07/13 17:12:29;;;;;;;3.97;1.27;;;31.40;34.70;;;;;;10443234;28;20219;-70
2022/07/13 17:17:29;;;;;;;5.60;1.30;;;31.40;35.40;;;;;;10437449;28;20204;-70
2022/07/13 17:22:30;;;;;;;9.60;1.60;;;31.30;35.60;;;;;;10444771;28;20230;-70
2022/07/13 17:27:30;;;;;;;3.23;0.77;;;31.10;35.00;;;;;;10437222;28;20292;-70
2022/07/13 17:32:31;;;;;;;1.53;1.10;;;31.00;35.60;;;;;;10439700;28;20258;-70
2022/07/13 17:37:33;;;;;;;3.23;1.00;;;30.90;35.60;;;;;;10442015;28;20211;-70
2022/07/13 17:42:33;;;;;;;1.70;0.87;;;30.80;35.70;;;;;;10432118;28;20219;-71
2022/07/13 17:47:34;;;;;;;1.30;0.80;;;30.60;36.10;;;;;;10429159;28;20216;-70
2022/07/13 17:52:35;;;;;;;4.30;0.93;;;30.30;36.80;;;;;;10439151;28;20302;-70
2022/07/13 17:57:35;;;;;;;3.97;0.90;;;30.00;37.80;;;;;;10437291;28;20223;-69
2022/07/13 18:02:37;;;;;;;1.47;1.00;;;29.70;38.00;;;;;;10442725;28;20845;-69
2022/07/13 18:07:38;;;;;;;3.30;1.10;;;29.50;38.50;;;;;;10445352;28;20310;-70
2022/07/13 18:12:39;;;;;;;5.87;1.30;;;29.40;38.50;;;;;;10446711;28;20245;-71
2022/07/13 18:17:40;;;;;;;2.70;1.07;;;29.30;39.30;;;;;;10439540;28;20224;-69
2022/07/13 18:22:41;;;;;;;2.93;1.00;;;29.30;39.00;;;;;;10438820;28;20228;-70
2022/07/13 18:27:42;;;;;;;2.50;1.10;;;29.30;38.60;;;;;;10430851;28;20236;-69
2022/07/13 18:32:42;;;;;;;1.23;0.93;;;29.30;38.50;;;;;;10435752;28;20224;-69
2022/07/13 18:37:43;;;;;;;1.17;1.07;;;29.50;38.70;;;;;;10437774;28;20219;-70
2022/07/13 18:42:43;;;;;;;2.43;1.30;;;29.50;39.10;;;;;;10454642;28;20231;-70
2022/07/13 18:47:44;;;;;;;1.70;1.00;;;29.40;39.30;;;;;;10446927;28;20593;-69
2022/07/13 18:52:45;;;;;;;9.30;1.40;;;29.30;39.10;;;;;;10451904;28;20246;-69
2022/07/13 18:57:45;;;;;;;2.93;1.20;;;29.20;39.30;;;;;;10437526;28;20240;-70
2022/07/13 19:02:49;;;;;;;2.20;1.20;;;29.10;39.60;;;;;;10450833;28;20227;-69
2022/07/13 19:07:50;;;;;;;3.17;1.20;;;28.80;40.00;;;;;;10444841;28;20252;-69
2022/07/13 19:12:50;;;;;;;1.10;1.00;;;28.60;40.50;;;;;;10448503;28;20248;-69
2022/07/13 19:17:51;;;;;;;3.73;1.43;;;28.20;42.50;;;;;;10437040;28;20228;-70
2022/07/13 19:22:54;;;;;;;4.03;1.60;;;27.70;44.10;;;;;;10443798;28;20231;-70
2022/07/13 19:27:55;;;;;;;5.17;2.00;;;27.50;45.50;;;;;;10447418;28;20685;-70
2022/07/13 19:32:56;;;;;;;3.70;2.20;;;27.30;48.60;;;;;;10447708;28;20227;-69
2022/07/13 19:37:56;;;;;;;6.03;2.37;;;27.20;48.70;;;;;;10442845;28;20299;-69
2022/07/13 19:43:00;;;;;;;6.47;2.00;;;27.10;51.30;;;;;;10444974;28;20249;-70
2022/07/13 19:48:01;;;;;;;4.93;2.00;;;27.00;52.20;;;;;;10449560;28;20227;-70
2022/07/13 19:53:02;;;;;;;6.00;1.90;;;26.90;52.90;;;;;;10443437;28;20261;-70
2022/07/13 19:58:03;;;;;;;3.77;2.40;;;26.80;53.40;;;;;;10434750;28;20332;-69
2022/07/13 20:03:04;;;;;;;4.73;2.20;;;26.70;54.00;;;;;;10445297;28;20338;-70
2022/07/13 20:08:04;;;;;;;3.57;2.17;;;26.60;54.60;;;;;;10442771;28;20322;-70
2022/07/13 20:13:05;;;;;;;3.33;2.00;;;26.60;55.10;;;;;;10450192;28;20684;-69
2022/07/13 20:18:05;;;;;;;3.07;2.30;;;26.50;55.50;;;;;;10443733;28;20238;-69
2022/07/13 20:23:06;;;;;;;6.27;2.13;;;26.50;56.00;;;;;;10442779;28;20223;-70
2022/07/13 20:28:07;;;;;;;3.97;1.93;;;26.50;56.20;;;;;;10443478;28;20268;-68
2022/07/13 20:33:07;;;;;;;3.67;2.20;;;26.50;56.90;;;;;;10447765;28;20221;-70
2022/07/13 20:38:08;;;;;;;4.20;2.10;;;26.50;57.50;;;;;;10415970;28;20700;-70
2022/07/13 20:43:08;;;;;;;3.20;2.90;;;26.40;57.60;;;;;;10423643;28;20225;-70
2022/07/13 20:48:09;;;;;;;4.60;2.70;;;26.40;58.10;;;;;;10458709;28;20226;-71
2022/07/13 20:53:10;;;;;;;5.03;2.50;;;26.30;58.60;;;;;;10447849;28;20287;-70
2022/07/13 20:58:11;;;;;;;5.33;2.60;;;26.20;59.20;;;;;;10448424;28;20218;-69
2022/07/13 21:03:13;;;;;;;2.50;2.30;;;26.10;59.60;;;;;;10441926;28;20289;-69
2022/07/13 21:08:14;;;;;;;2.90;2.00;;;26.00;59.90;;;;;;10435649;28;20226;-70
2022/07/13 21:13:14;;;;;;;3.60;2.30;;;26.00;60.30;;;;;;10436727;28;20669;-71
2022/07/13 21:18:15;;;;;;;2.40;2.20;;;25.90;60.60;;;;;;10438396;28;20227;-70
2022/07/13 21:23:16;;;;;;;3.47;2.53;;;25.90;61.00;;;;;;10428577;28;20220;-72
2022/07/13 21:28:16;;;;;;;3.23;2.60;;;25.90;61.40;;;;;;10428733;28;20226;-70
2022/07/13 21:33:17;;;;;;;3.97;2.50;;;25.90;61.70;;;;;;10429572;28;20395;-71
2022/07/13 21:38:18;;;;;;;7.77;3.50;;;25.80;62.00;;;;;;10439273;28;20219;-70
2022/07/13 21:43:20;;;;;;;2.90;2.70;;;25.70;62.40;;;;;;10438488;28;20243;-69
2022/07/13 21:48:21;;;;;;;6.77;2.80;;;25.60;63.00;;;;;;10446639;28;20246;-70
2022/07/13 21:53:22;;;;;;;4.67;2.60;;;25.50;63.40;;;;;;10447782;28;20230;-70
2022/07/13 21:58:22;;;;;;;3.23;2.60;;;25.40;64.30;;;;;;10434583;28;20255;-69
2022/07/13 22:03:26;;;;;;;3.30;2.93;;;25.40;65.00;;;;;;10428922;28;20222;-70
2022/07/13 22:08:26;;;;;;;7.70;3.20;;;25.40;65.20;;;;;;10445595;28;20227;-71
2022/07/13 22:14:04;;;;;;;3.77;2.83;;;25.40;65.30;;;;;;10434435;28;20223;-70
2022/07/13 22:19:42;;;;;;;4.67;2.63;;;25.40;64.80;;;;;;10443052;28;20311;-68
2022/07/13 22:25:20;;;;;;;5.10;3.00;;;25.50;64.90;;;;;;10411003;28;20298;-69
2022/07/13 22:30:58;;;;;;;5.80;2.90;;;25.40;65.60;;;;;;10440053;28;20224;-69
2022/07/13 22:36:37;;;;;;;2.87;2.60;;;25.30;66.00;;;;;;10438136;28;20227;-69
2022/07/13 22:42:15;;;;;;;4.33;2.70;;;25.30;66.20;;;;;;10437676;28;20223;-70
2022/07/13 22:47:54;;;;;;;5.30;3.07;;;25.20;65.00;;;;;;10440517;28;20220;-69
2022/07/13 22:53:35;;;;;;;4.23;2.40;;;25.30;65.60;;;;;;10461315;28;20235;-70
2022/07/13 22:59:13;;;;;;;5.33;2.60;;;25.30;65.30;;;;;;10429458;28;20283;-70
2022/07/13 23:04:51;;;;;;;5.20;2.57;;;25.40;65.30;;;;;;10443853;28;20215;-70
2022/07/13 23:10:29;;;;;;;3.50;2.40;;;25.40;65.20;;;;;;10434276;28;20269;-70
2022/07/13 23:16:07;;;;;;;5.50;2.80;;;25.30;65.90;;;;;;10431834;28;20235;-69
2022/07/13 23:21:46;;;;;;;6.13;3.13;;;25.20;66.30;;;;;;10444970;28;20284;-70
2022/07/13 23:27:24;;;;;;;3.30;2.80;;;25.10;66.90;;;;;;10447399;28;20230;-69
2022/07/13 23:32:30;;;;;;;3.00;2.63;;;25.10;67.80;;;;;;10446028;28;20226;-70
2022/07/13 23:37:34;;;;;;;4.63;2.70;;;25.00;68.60;;;;;;10441438;28;20228;-70
2022/07/13 23:42:35;;;;;;;11.37;3.33;;;24.90;68.70;;;;;;10446088;28;20218;-70
2022/07/13 23:47:36;;;;;;;5.73;2.90;;;24.90;68.70;;;;;;10444180;28;20306;-69
2022/07/13 23:52:36;;;;;;;3.17;2.60;;;24.90;68.90;;;;;;10450056;28;20238;-69
2022/07/13 23:57:37;;;;;;;6.10;2.90;;;24.90;68.80;;;;;;10434596;28;20745;-69
